createdAt,value
2019-04-22T00:00:49.042Z,35.97
2019-04-22T00:01:50.328Z,35.88
2019-04-22T00:02:52.596Z,35.88
2019-04-22T00:03:53.179Z,35.88
2019-04-22T00:04:58.961Z,35.88
2019-04-22T00:06:05.306Z,35.88
2019-04-22T00:07:08.705Z,35.68
2019-04-22T00:08:11.685Z,35.78
2019-04-22T00:09:11.188Z,36.40
2019-04-22T00:10:13.466Z,36.29
2019-04-22T00:11:18.130Z,35.66
2019-04-22T00:12:16.764Z,35.58
2019-04-22T00:13:18.613Z,35.88
2019-04-22T00:14:10.343Z,35.68
2019-04-22T00:15:08.045Z,35.78
2019-04-22T00:16:07.243Z,35.78
2019-04-22T00:17:20.348Z,35.68
2019-04-22T00:18:16.586Z,35.80
2019-04-22T00:19:30.371Z,36.00
2019-04-22T00:20:11.635Z,36.31
2019-04-22T00:21:12.554Z,36.21
2019-04-22T00:22:17.946Z,36.21
2019-04-22T00:23:14.033Z,36.21
2019-04-22T00:24:14.012Z,36.21
2019-04-22T00:25:17.702Z,36.31
2019-04-22T00:26:20.720Z,36.31
2019-04-22T00:27:14.257Z,36.31
2019-04-22T00:28:18.360Z,36.41
2019-04-22T00:29:34.260Z,36.51
2019-04-22T00:31:10.295Z,36.51
2019-04-22T00:32:11.353Z,36.61
2019-04-22T00:33:08.627Z,36.82
2019-04-22T00:34:09.358Z,36.71
2019-04-22T00:35:06.006Z,36.71
2019-04-22T00:36:14.808Z,36.61
2019-04-22T00:37:11.683Z,36.71
2019-04-22T00:38:11.142Z,36.82
2019-04-22T00:39:15.056Z,36.94
2019-04-22T00:40:14.780Z,37.14
2019-04-22T00:41:13.247Z,37.35
2019-04-22T00:42:09.642Z,37.55
2019-04-22T00:43:13.567Z,37.55
2019-04-22T00:44:15.735Z,37.55
2019-04-22T00:45:15.784Z,37.55
2019-04-22T00:46:11.390Z,37.57
2019-04-22T00:47:21.830Z,37.77
2019-04-22T00:48:17.902Z,37.77
2019-04-22T00:49:53.005Z,37.87
2019-04-22T00:50:18.807Z,37.98
2019-04-22T00:51:12.330Z,37.87
2019-04-22T00:52:09.356Z,38.08
2019-04-22T00:53:16.459Z,38.08
2019-04-22T00:54:08.710Z,38.18
2019-04-22T00:55:11.873Z,38.28
2019-04-22T00:56:11.233Z,38.28
2019-04-22T00:57:10.506Z,38.39
2019-04-22T00:58:13.947Z,38.48
2019-04-22T00:59:15.637Z,38.69
2019-04-22T01:00:13.021Z,38.78
2019-04-22T01:01:14.285Z,38.57
2019-04-22T01:02:18.532Z,38.57
2019-04-22T01:03:11.821Z,38.59
2019-04-22T01:04:23.762Z,39.18
2019-04-22T01:05:17.020Z,38.78
2019-04-22T01:06:12.018Z,38.67
2019-04-22T01:07:13.066Z,38.69
2019-04-22T01:08:17.794Z,38.89
2019-04-22T01:09:11.030Z,39.10
2019-04-22T01:10:11.712Z,38.89
2019-04-22T01:11:19.561Z,39.00
2019-04-22T01:12:13.930Z,39.00
2019-04-22T01:13:16.312Z,39.20
2019-04-22T01:14:06.233Z,39.51
2019-04-22T01:15:18.216Z,39.61
2019-04-22T01:16:13.894Z,38.59
2019-04-22T01:17:06.376Z,38.69
2019-04-22T01:18:11.763Z,38.89
2019-04-22T01:19:10.446Z,38.91
2019-04-22T01:20:24.626Z,39.12
2019-04-22T01:21:19.128Z,39.32
2019-04-22T01:22:13.667Z,40.22
2019-04-22T01:23:05.814Z,39.92
2019-04-22T01:24:02.857Z,40.63
2019-04-22T01:25:08.344Z,39.40
2019-04-22T01:26:05.320Z,39.51
2019-04-22T01:27:04.865Z,39.30
2019-04-22T01:28:01.355Z,39.61
2019-04-22T01:28:58.867Z,39.81
2019-04-22T01:29:59.682Z,40.20
2019-04-22T01:30:53.415Z,40.00
2019-04-22T01:31:47.364Z,39.49
2019-04-22T01:32:50.303Z,39.18
2019-04-22T01:33:53.983Z,39.18
2019-04-22T01:34:59.013Z,39.69
2019-04-22T01:36:01.462Z,39.69
2019-04-22T01:37:03.513Z,39.69
2019-04-22T01:38:06.188Z,39.49
2019-04-22T01:39:14.030Z,39.28
2019-04-22T01:40:14.720Z,39.39
2019-04-22T01:41:16.127Z,39.81
2019-04-22T01:42:27.214Z,40.22
2019-04-22T01:44:27.948Z,40.73
2019-04-22T01:45:14.293Z,41.24
2019-04-22T01:46:23.511Z,41.65
2019-04-22T01:47:13.155Z,41.24
2019-04-22T01:48:10.651Z,41.02
2019-04-22T01:49:15.940Z,41.12
2019-04-22T01:50:12.286Z,40.51
2019-04-22T01:51:07.623Z,40.63
2019-04-22T01:52:12.783Z,40.63
2019-04-22T01:53:10.613Z,40.94
2019-04-22T01:54:12.204Z,41.04
2019-04-22T01:55:22.611Z,41.04
2019-04-22T01:56:13.715Z,41.24
2019-04-22T01:57:15.950Z,41.26
2019-04-22T01:58:08.457Z,41.36
2019-04-22T01:59:04.876Z,41.36
2019-04-22T02:00:00.944Z,41.56
2019-04-22T02:01:18.380Z,41.56
2019-04-22T02:02:13.954Z,41.67
2019-04-22T02:03:12.051Z,41.77
2019-04-22T02:04:22.588Z,41.88
2019-04-22T02:05:12.257Z,41.79
2019-04-22T02:06:15.707Z,42.00
2019-04-22T02:07:17.988Z,42.30
2019-04-22T02:08:19.177Z,42.50
2019-04-22T02:09:20.286Z,42.61
2019-04-22T02:10:16.551Z,42.71
2019-04-22T02:11:17.322Z,42.81
2019-04-22T02:12:13.146Z,42.94
2019-04-22T02:13:15.273Z,43.14
2019-04-22T02:14:11.657Z,43.24
2019-04-22T02:15:13.785Z,43.35
2019-04-22T02:16:14.160Z,43.57
2019-04-22T02:17:17.541Z,43.88
2019-04-22T02:18:18.113Z,44.08
2019-04-22T02:19:20.709Z,44.08
2019-04-22T02:20:10.590Z,44.29
2019-04-22T02:21:07.334Z,44.08
2019-04-22T02:22:07.344Z,43.77
2019-04-22T02:23:32.667Z,43.88
2019-04-22T02:24:10.796Z,43.88
2019-04-22T02:25:18.549Z,43.76
2019-04-22T02:27:21.001Z,43.76
2019-04-22T02:28:16.988Z,43.76
2019-04-22T02:29:19.892Z,43.76
2019-04-22T02:30:05.864Z,43.55
2019-04-22T02:32:19.572Z,43.77
2019-04-22T02:34:22.296Z,44.08
2019-04-22T02:35:23.951Z,44.08
2019-04-22T02:38:31.097Z,44.08
2019-04-22T02:39:15.904Z,44.08
2019-04-22T02:40:19.364Z,43.85
2019-04-22T02:41:22.885Z,43.85
2019-04-22T02:43:28.288Z,43.96
2019-04-22T02:44:13.532Z,43.85
2019-04-22T02:45:23.225Z,43.96
2019-04-22T02:48:26.242Z,43.96
2019-04-22T02:50:08.898Z,43.76
2019-04-22T02:51:16.914Z,44.08
2019-04-22T02:52:19.990Z,44.38
2019-04-22T02:53:36.528Z,44.49
2019-04-22T02:54:36.546Z,44.41
2019-04-22T02:55:21.082Z,44.51
2019-04-22T02:57:27.962Z,44.92
2019-04-22T02:58:27.257Z,44.92
2019-04-22T02:59:14.816Z,45.04
2019-04-22T03:00:21.889Z,45.04
2019-04-22T03:01:23.354Z,45.04
2019-04-22T03:02:22.475Z,45.04
2019-04-22T03:03:36.093Z,45.15
2019-04-22T03:04:20.597Z,45.35
2019-04-22T03:05:19.562Z,45.45
2019-04-22T03:07:12.750Z,45.56
2019-04-22T03:08:25.567Z,45.45
2019-04-22T03:09:18.476Z,45.45
2019-04-22T03:10:37.448Z,45.56
2019-04-22T03:11:19.022Z,45.56
2019-04-22T03:12:16.426Z,45.65
2019-04-22T03:13:23.361Z,45.56
2019-04-22T03:14:13.494Z,45.45
2019-04-22T03:16:29.153Z,45.56
2019-04-22T03:17:18.448Z,45.86
2019-04-22T03:18:22.078Z,45.97
2019-04-22T03:19:26.184Z,45.97
2019-04-22T03:20:08.495Z,46.07
2019-04-22T03:21:17.929Z,45.76
2019-04-22T03:22:16.565Z,45.65
2019-04-22T03:23:25.511Z,45.76
2019-04-22T03:27:27.524Z,45.84
2019-04-22T03:28:19.788Z,45.76
2019-04-22T03:29:15.457Z,45.86
2019-04-22T03:30:41.958Z,46.19
2019-04-22T03:31:27.336Z,46.30
2019-04-22T03:32:39.509Z,46.39
2019-04-22T03:36:44.372Z,46.91
2019-04-22T03:38:08.532Z,46.91
2019-04-22T03:38:35.007Z,46.91
2019-04-22T03:40:22.761Z,47.01
2019-04-22T03:41:31.258Z,47.11
2019-04-22T03:43:13.713Z,47.22
2019-04-22T03:44:27.025Z,47.22
2019-04-22T03:46:15.941Z,47.22
2019-04-22T03:48:17.597Z,47.11
2019-04-22T03:49:29.189Z,47.22
2019-04-22T03:51:33.878Z,47.30
2019-04-22T03:52:16.338Z,47.19
2019-04-22T03:53:15.367Z,48.11
2019-04-22T03:55:19.053Z,47.09
2019-04-22T03:56:37.392Z,47.11
2019-04-22T03:58:01.731Z,47.42
2019-04-22T04:01:20.618Z,47.52
2019-04-22T04:02:24.027Z,47.52
2019-04-22T04:03:11.934Z,47.63
2019-04-22T04:04:26.053Z,47.52
2019-04-22T04:05:22.217Z,47.52
2019-04-22T04:06:18.022Z,47.73
2019-04-22T04:07:38.346Z,47.73
2019-04-22T04:10:35.440Z,47.83
2019-04-22T04:11:06.949Z,47.73
2019-04-22T04:12:18.232Z,47.63
2019-04-22T04:15:21.266Z,47.96
2019-04-22T04:16:19.588Z,47.85
2019-04-22T04:18:09.191Z,47.44
2019-04-22T04:20:21.473Z,47.64
2019-04-22T04:21:26.677Z,47.85
2019-04-22T04:22:41.470Z,47.64
2019-04-22T04:24:32.941Z,47.85
2019-04-22T04:25:29.499Z,47.96
2019-04-22T04:26:21.870Z,48.34
2019-04-22T04:27:30.922Z,48.03
2019-04-22T04:28:29.415Z,47.83
2019-04-22T04:29:35.640Z,47.83
2019-04-22T04:31:27.366Z,47.83
2019-04-22T04:33:18.101Z,47.93
2019-04-22T04:35:23.215Z,47.60
2019-04-22T04:36:16.530Z,47.60
2019-04-22T04:37:32.700Z,47.19
2019-04-22T04:38:13.115Z,46.99
2019-04-22T04:39:18.867Z,47.09
2019-04-22T04:40:20.702Z,47.09
2019-04-22T04:41:24.822Z,47.09
2019-04-22T04:42:26.123Z,47.19
2019-04-22T04:43:19.027Z,47.19
2019-04-22T04:46:30.344Z,46.97
2019-04-22T04:47:25.849Z,46.86
2019-04-22T04:48:14.748Z,46.97
2019-04-22T04:49:17.624Z,46.76
2019-04-22T04:50:15.861Z,46.66
2019-04-22T04:51:33.006Z,46.89
2019-04-22T04:54:21.411Z,47.52
2019-04-22T04:56:25.667Z,47.63
2019-04-22T04:58:27.859Z,47.19
2019-04-22T05:01:30.254Z,46.35
2019-04-22T05:02:20.442Z,46.12
2019-04-22T05:03:21.233Z,46.03
2019-04-22T05:04:42.100Z,45.92
2019-04-22T05:06:39.335Z,45.72
2019-04-22T05:07:18.753Z,45.92
2019-04-22T05:08:29.070Z,45.92
2019-04-22T05:11:16.420Z,45.31
2019-04-22T05:12:25.326Z,45.61
2019-04-22T05:13:10.735Z,45.51
2019-04-22T05:14:19.050Z,45.61
2019-04-22T05:16:25.370Z,45.49
2019-04-22T05:18:12.614Z,45.31
2019-04-22T05:19:15.093Z,45.74
2019-04-22T05:21:14.713Z,46.04
2019-04-22T05:22:32.085Z,46.25
2019-04-22T05:23:16.230Z,46.17
2019-04-22T05:24:16.840Z,46.25
2019-04-22T05:25:16.060Z,46.04
2019-04-22T05:26:12.633Z,45.82
2019-04-22T05:27:25.666Z,45.72
2019-04-22T05:28:13.500Z,45.82
2019-04-22T05:29:09.765Z,45.61
2019-04-22T05:31:08.326Z,45.08
2019-04-22T05:32:08.904Z,44.76
2019-04-22T05:33:10.729Z,44.55
2019-04-22T05:34:09.660Z,44.32
2019-04-22T05:36:07.452Z,43.79
2019-04-22T05:37:07.359Z,43.69
2019-04-22T05:38:09.697Z,43.04
2019-04-22T05:39:06.147Z,42.73
2019-04-22T05:40:16.267Z,42.63
2019-04-22T05:41:14.820Z,42.43
2019-04-22T05:42:11.479Z,42.41
2019-04-22T05:43:09.381Z,41.80
2019-04-22T05:44:08.306Z,41.57
2019-04-22T05:45:10.143Z,41.06
2019-04-22T05:46:09.525Z,41.49
2019-04-22T05:47:11.048Z,41.19
2019-04-22T05:48:13.640Z,41.82
2019-04-22T05:49:14.946Z,41.49
2019-04-22T05:50:07.550Z,40.86
2019-04-22T05:51:10.258Z,41.28
2019-04-22T05:52:09.630Z,41.28
2019-04-22T05:53:19.589Z,41.06
2019-04-22T05:54:13.131Z,40.66
2019-04-22T05:55:08.297Z,40.98
2019-04-22T05:56:12.511Z,41.51
2019-04-22T05:57:09.426Z,41.71
2019-04-22T05:58:12.395Z,42.02
2019-04-22T05:59:14.714Z,42.22
2019-04-22T06:02:16.406Z,41.06
2019-04-22T06:03:20.915Z,41.27
2019-04-22T06:05:10.153Z,40.52
2019-04-22T06:06:11.450Z,40.27
2019-04-22T06:07:06.610Z,39.44
2019-04-22T06:08:06.672Z,39.02
2019-04-22T06:09:24.921Z,38.78
2019-04-22T06:10:09.994Z,38.05
2019-04-22T06:11:09.425Z,38.15
2019-04-22T06:12:09.859Z,38.05
2019-04-22T06:13:00.913Z,37.40
2019-04-22T06:14:01.908Z,36.68
2019-04-22T06:15:08.220Z,36.15
2019-04-22T06:16:01.837Z,36.25
2019-04-22T06:17:10.579Z,36.82
2019-04-22T06:19:07.593Z,37.44
2019-04-22T06:20:09.027Z,37.64
2019-04-22T06:22:18.824Z,37.85
2019-04-22T06:23:13.165Z,37.54
2019-04-22T06:24:11.267Z,36.91
2019-04-22T06:25:17.048Z,36.49
2019-04-22T06:28:16.024Z,35.61
2019-04-22T06:29:13.618Z,34.47
2019-04-22T06:30:09.641Z,33.75
2019-04-22T06:31:12.519Z,34.28
2019-04-22T06:32:31.507Z,34.38
2019-04-22T06:33:13.230Z,34.38
2019-04-22T06:34:11.895Z,34.17
2019-04-22T06:35:16.698Z,34.09
2019-04-22T06:36:08.684Z,35.57
2019-04-22T06:39:10.424Z,36.69
2019-04-22T06:40:10.180Z,36.37
2019-04-22T06:41:08.786Z,36.07
2019-04-22T06:42:08.719Z,36.37
2019-04-22T06:43:10.421Z,36.15
2019-04-22T06:44:13.054Z,35.63
2019-04-22T06:45:12.030Z,35.43
2019-04-22T06:46:08.414Z,34.50
2019-04-22T06:47:10.576Z,34.89
2019-04-22T06:48:13.137Z,34.48
2019-04-22T06:49:11.113Z,34.91
2019-04-22T06:50:07.752Z,34.80
2019-04-22T06:51:08.096Z,35.22
2019-04-22T06:53:23.721Z,35.75
2019-04-22T06:54:07.264Z,35.63
2019-04-22T06:55:07.631Z,35.22
2019-04-22T06:56:04.779Z,35.65
2019-04-22T06:57:06.273Z,35.95
2019-04-22T06:58:04.797Z,35.83
2019-04-22T06:59:08.499Z,35.19
2019-04-22T07:00:16.053Z,34.45
2019-04-22T07:01:09.945Z,33.95
2019-04-22T07:02:13.338Z,33.83
2019-04-22T07:03:39.889Z,33.93
2019-04-22T07:04:03.256Z,33.93
2019-04-22T07:05:13.122Z,34.15
2019-04-22T07:06:08.192Z,34.25
2019-04-22T07:07:06.632Z,34.01
2019-04-22T07:08:18.242Z,33.59
2019-04-22T07:10:20.504Z,33.09
2019-04-22T07:11:04.526Z,33.51
2019-04-22T07:12:11.642Z,33.80
2019-04-22T07:13:10.640Z,33.15
2019-04-22T07:14:04.246Z,32.63
2019-04-22T07:15:11.084Z,32.04
2019-04-22T07:16:05.095Z,32.15
2019-04-22T07:17:08.638Z,32.99
2019-04-22T07:18:11.594Z,33.59
2019-04-22T07:19:09.342Z,33.48
2019-04-22T07:20:04.022Z,33.26
2019-04-22T07:21:06.371Z,33.19
2019-04-22T07:22:11.329Z,33.70
2019-04-22T07:23:10.685Z,34.03
2019-04-22T07:24:27.484Z,34.66
2019-04-22T07:25:06.239Z,34.74
2019-04-22T07:26:05.978Z,34.20
2019-04-22T07:28:05.191Z,32.96
2019-04-22T07:29:10.439Z,32.84
2019-04-22T07:30:08.992Z,32.11
2019-04-22T07:31:03.911Z,32.01
2019-04-22T07:32:07.850Z,31.71
2019-04-22T07:34:16.576Z,32.23
2019-04-22T07:35:08.763Z,32.53
2019-04-22T07:38:14.019Z,33.39
2019-04-22T07:39:05.631Z,34.62
2019-04-22T07:40:02.247Z,34.50
2019-04-22T07:41:10.319Z,33.88
2019-04-22T07:42:05.534Z,33.88
2019-04-22T07:43:12.094Z,33.16
2019-04-22T07:44:13.121Z,32.96
2019-04-22T07:45:25.493Z,33.25
2019-04-22T07:46:09.552Z,32.75
2019-04-22T07:47:16.988Z,32.61
2019-04-22T07:48:12.996Z,32.32
2019-04-22T07:50:08.418Z,32.95
2019-04-22T07:51:07.610Z,32.96
2019-04-22T07:52:04.802Z,33.16
2019-04-22T07:53:05.496Z,32.84
2019-04-22T07:54:07.652Z,32.86
2019-04-22T07:55:04.170Z,32.64
2019-04-22T07:56:05.117Z,32.23
2019-04-22T07:57:15.103Z,32.54
2019-04-22T07:58:04.969Z,32.54
2019-04-22T07:59:12.993Z,32.51
2019-04-22T08:00:09.119Z,31.68
2019-04-22T08:01:09.080Z,30.94
2019-04-22T08:02:04.047Z,30.43
2019-04-22T08:03:14.586Z,30.22
2019-04-22T08:08:17.414Z,31.48
2019-04-22T08:09:07.575Z,31.37
2019-04-22T08:11:26.570Z,31.46
2019-04-22T08:12:05.577Z,30.76
2019-04-22T08:13:07.347Z,30.73
2019-04-22T08:14:07.618Z,30.63
2019-04-22T08:15:06.125Z,31.04
2019-04-22T08:16:04.460Z,31.14
2019-04-22T08:17:30.792Z,30.63
2019-04-22T08:18:22.417Z,30.85
2019-04-22T08:19:12.246Z,30.96
2019-04-22T08:20:14.070Z,31.27
2019-04-22T08:21:07.616Z,31.48
2019-04-22T08:22:01.405Z,31.26
2019-04-22T08:23:09.159Z,31.04
2019-04-22T08:24:07.951Z,30.84
2019-04-22T08:25:05.484Z,30.93
2019-04-22T08:26:01.139Z,30.81
2019-04-22T08:27:05.970Z,30.69
2019-04-22T08:28:10.165Z,30.36
2019-04-22T08:29:11.996Z,30.65
2019-04-22T08:31:10.366Z,29.14
2019-04-22T08:32:07.665Z,29.14
2019-04-22T08:33:09.858Z,29.02
2019-04-22T08:34:06.333Z,29.51
2019-04-22T08:35:04.849Z,28.71
2019-04-22T08:37:38.747Z,28.39
2019-04-22T08:38:06.951Z,27.80
2019-04-22T08:39:08.263Z,28.18
2019-04-22T08:40:15.439Z,27.57
2019-04-22T08:41:06.603Z,27.58
2019-04-22T08:42:08.282Z,27.47
2019-04-22T08:43:13.949Z,28.00
2019-04-22T08:44:07.943Z,28.61
2019-04-22T08:46:05.438Z,28.16
2019-04-22T08:47:11.494Z,28.07
2019-04-22T08:48:04.470Z,27.36
2019-04-22T08:49:16.198Z,27.06
2019-04-22T08:50:07.805Z,27.57
2019-04-22T08:51:09.471Z,27.34
2019-04-22T08:52:11.043Z,26.73
2019-04-22T08:53:11.006Z,26.72
2019-04-22T08:54:06.143Z,26.33
2019-04-22T08:56:22.004Z,27.70
2019-04-22T08:58:23.067Z,28.19
2019-04-22T08:59:08.242Z,27.47
2019-04-22T09:00:07.137Z,27.06
2019-04-22T09:01:11.920Z,27.06
2019-04-22T09:02:09.346Z,27.07
2019-04-22T09:03:04.404Z,26.87
2019-04-22T09:05:19.065Z,27.91
2019-04-22T09:06:13.926Z,27.80
2019-04-22T09:08:09.365Z,27.08
2019-04-22T09:09:06.166Z,26.46
2019-04-22T09:10:01.686Z,25.93
2019-04-22T09:11:04.671Z,26.34
2019-04-22T09:12:08.428Z,26.84
2019-04-22T09:13:09.895Z,27.04
2019-04-22T09:14:11.617Z,26.45
2019-04-22T09:15:08.618Z,26.73
2019-04-22T09:16:16.651Z,26.82
2019-04-22T09:17:13.373Z,26.42
2019-04-22T09:18:07.983Z,26.09
2019-04-22T09:19:10.678Z,25.81
2019-04-22T09:20:06.755Z,27.26
2019-04-22T09:21:14.290Z,27.53
2019-04-22T09:22:09.705Z,27.62
2019-04-22T09:23:09.704Z,28.10
2019-04-22T09:24:10.542Z,27.30
2019-04-22T09:25:03.896Z,27.19
2019-04-22T09:26:09.424Z,26.70
2019-04-22T09:27:12.953Z,26.76
2019-04-22T09:28:03.426Z,28.91
2019-04-22T09:29:05.839Z,29.51
2019-04-22T09:30:09.105Z,29.71
2019-04-22T09:31:08.092Z,29.39
2019-04-22T09:33:08.168Z,29.53
2019-04-22T09:33:59.552Z,29.64
2019-04-22T09:35:03.064Z,29.74
2019-04-22T09:36:16.159Z,29.51
2019-04-22T09:37:14.361Z,28.91
2019-04-22T09:38:19.238Z,28.81
2019-04-22T09:39:01.452Z,29.02
2019-04-22T09:40:04.532Z,29.14
2019-04-22T09:41:05.372Z,29.25
2019-04-22T09:42:07.883Z,30.05
2019-04-22T09:43:05.075Z,29.74
2019-04-22T09:44:05.714Z,29.34
2019-04-22T09:45:06.179Z,29.52
2019-04-22T09:46:02.118Z,28.72
2019-04-22T09:47:08.004Z,28.82
2019-04-22T09:48:14.132Z,28.22
2019-04-22T09:50:26.046Z,27.41
2019-04-22T09:51:05.662Z,26.52
2019-04-22T09:52:08.541Z,26.52
2019-04-22T09:53:08.346Z,26.31
2019-04-22T09:54:20.224Z,25.90
2019-04-22T09:55:15.499Z,25.89
2019-04-22T09:56:08.049Z,25.98
2019-04-22T09:57:04.025Z,25.77
2019-04-22T09:58:03.184Z,25.26
2019-04-22T09:59:02.601Z,24.47
2019-04-22T10:01:13.618Z,25.70
2019-04-22T10:02:19.779Z,26.21
2019-04-22T10:03:07.098Z,26.62
2019-04-22T10:05:07.896Z,26.79
2019-04-22T10:06:16.552Z,26.50
2019-04-22T10:07:00.367Z,26.31
2019-04-22T10:08:14.592Z,25.49
2019-04-22T10:11:04.653Z,25.81
2019-04-22T10:12:02.158Z,25.71
2019-04-22T10:13:10.517Z,26.23
2019-04-22T10:14:05.800Z,26.62
2019-04-22T10:14:59.910Z,26.32
2019-04-22T10:16:12.080Z,26.42
2019-04-22T10:17:04.965Z,26.71
2019-04-22T10:18:02.873Z,26.29
2019-04-22T10:19:04.349Z,25.90
2019-04-22T10:20:07.205Z,26.41
2019-04-22T10:21:08.406Z,26.61
2019-04-22T10:22:04.536Z,26.51
2019-04-22T10:22:59.209Z,26.59
2019-04-22T10:24:03.502Z,26.29
2019-04-22T10:25:03.290Z,26.20
2019-04-22T10:26:04.824Z,26.50
2019-04-22T10:27:01.762Z,26.81
2019-04-22T10:28:08.830Z,27.22
2019-04-22T10:29:09.165Z,27.11
2019-04-22T10:30:04.143Z,27.11
2019-04-22T10:31:00.495Z,27.00
2019-04-22T10:32:01.119Z,26.71
2019-04-22T10:33:03.323Z,26.59
2019-04-22T10:33:53.557Z,26.59
2019-04-22T10:34:47.256Z,26.51
2019-04-22T10:35:39.495Z,26.61
2019-04-22T10:36:39.665Z,26.59
2019-04-22T10:37:38.747Z,26.48
2019-04-22T10:38:38.163Z,26.08
2019-04-22T10:39:45.865Z,26.09
2019-04-22T10:40:40.635Z,25.89
2019-04-22T10:41:38.964Z,25.77
2019-04-22T10:42:38.855Z,25.87
2019-04-22T10:43:39.196Z,25.47
2019-04-22T10:44:39.247Z,25.56
2019-04-22T10:45:38.095Z,25.37
2019-04-22T10:46:38.084Z,25.67
2019-04-22T10:47:38.316Z,25.46
2019-04-22T10:48:38.098Z,25.06
2019-04-22T10:49:38.360Z,25.15
2019-04-22T10:50:39.314Z,25.15
2019-04-22T10:51:38.033Z,25.35
2019-04-22T10:52:39.289Z,25.24
2019-04-22T10:53:39.541Z,25.55
2019-04-22T10:54:37.997Z,25.85
2019-04-22T10:55:40.451Z,25.23
2019-04-22T10:56:39.166Z,24.76
2019-04-22T10:57:39.020Z,25.27
2019-04-22T10:58:38.476Z,25.36
2019-04-22T10:59:38.520Z,25.16
2019-04-22T11:00:37.935Z,25.67
2019-04-22T11:01:38.671Z,25.09
2019-04-22T11:02:39.361Z,25.68
2019-04-22T11:03:39.385Z,25.57
2019-04-22T11:04:38.635Z,25.06
2019-04-22T11:05:38.002Z,25.06
2019-04-22T11:06:42.598Z,25.56
2019-04-22T11:07:43.992Z,25.26
2019-04-22T11:08:46.620Z,25.05
2019-04-22T11:09:49.337Z,25.16
2019-04-22T11:10:59.077Z,25.26
2019-04-22T11:11:48.860Z,25.26
2019-04-22T11:12:39.464Z,25.66
2019-04-22T11:13:37.956Z,25.27
2019-04-22T11:14:40.164Z,25.47
2019-04-22T11:15:38.772Z,25.47
2019-04-22T11:16:37.769Z,25.68
2019-04-22T11:17:37.754Z,25.47
2019-04-22T11:18:37.900Z,25.37
2019-04-22T11:19:37.732Z,25.98
2019-04-22T11:20:37.868Z,26.18
2019-04-22T11:21:37.927Z,26.68
2019-04-22T11:22:38.950Z,27.29
2019-04-22T11:23:38.656Z,27.50
2019-04-22T11:24:38.907Z,27.68
2019-04-22T11:25:37.657Z,26.87
2019-04-22T11:26:38.832Z,26.77
2019-04-22T11:27:38.965Z,27.07
2019-04-22T11:28:38.039Z,25.97
2019-04-22T11:29:37.628Z,26.17
2019-04-22T11:30:38.751Z,27.29
2019-04-22T11:31:38.702Z,27.81
2019-04-22T11:32:38.199Z,28.01
2019-04-22T11:33:38.592Z,28.19
2019-04-22T11:34:37.669Z,27.88
2019-04-22T11:35:37.678Z,27.47
2019-04-22T11:36:38.760Z,27.17
2019-04-22T11:37:38.776Z,27.57
2019-04-22T11:38:45.081Z,27.36
2019-04-22T11:39:38.707Z,27.36
2019-04-22T11:40:40.352Z,28.05
2019-04-22T11:41:38.512Z,27.26
2019-04-22T11:42:38.503Z,27.78
2019-04-22T11:43:38.863Z,28.39
2019-04-22T11:44:37.504Z,28.18
2019-04-22T11:45:37.455Z,28.18
2019-04-22T11:46:39.068Z,28.09
2019-04-22T11:47:37.499Z,28.00
2019-04-22T11:48:38.094Z,28.00
2019-04-22T11:49:37.434Z,28.09
2019-04-22T11:50:37.722Z,28.09
2019-04-22T11:51:38.094Z,28.09
2019-04-22T11:52:37.366Z,28.30
2019-04-22T11:53:38.653Z,28.71
2019-04-22T11:54:38.815Z,28.51
2019-04-22T11:55:37.335Z,28.31
2019-04-22T11:56:38.801Z,28.31
2019-04-22T11:57:37.326Z,28.61
2019-04-22T11:58:37.357Z,28.30
2019-04-22T11:59:38.546Z,28.09
2019-04-22T12:00:38.850Z,27.58
2019-04-22T12:01:37.267Z,27.50
2019-04-22T12:02:38.719Z,27.80
2019-04-22T12:03:37.998Z,27.41
2019-04-22T12:04:38.133Z,27.71
2019-04-22T12:05:37.579Z,27.91
2019-04-22T12:06:37.879Z,27.81
2019-04-22T12:07:38.921Z,27.70
2019-04-22T12:08:37.409Z,27.39
2019-04-22T12:09:37.547Z,27.48
2019-04-22T12:10:44.023Z,27.98
2019-04-22T12:11:38.513Z,26.89
2019-04-22T12:12:37.164Z,27.39
2019-04-22T12:13:37.907Z,27.70
2019-04-22T12:14:38.252Z,26.89
2019-04-22T12:15:37.381Z,26.79
2019-04-22T12:16:37.220Z,27.01
2019-04-22T12:17:38.138Z,27.09
2019-04-22T12:18:37.319Z,27.09
2019-04-22T12:19:37.887Z,27.29
2019-04-22T12:20:37.272Z,26.89
2019-04-22T12:21:37.203Z,26.70
2019-04-22T12:22:37.042Z,26.20
2019-04-22T12:23:37.166Z,26.50
2019-04-22T12:24:38.300Z,26.50
2019-04-22T12:25:47.702Z,26.59
2019-04-22T12:26:38.167Z,26.09
2019-04-22T12:27:37.053Z,26.31
2019-04-22T12:28:37.107Z,26.21
2019-04-22T12:29:36.969Z,26.31
2019-04-22T12:30:37.383Z,26.51
2019-04-22T12:31:37.618Z,26.71
2019-04-22T12:32:36.941Z,26.59
2019-04-22T12:33:37.171Z,26.48
2019-04-22T12:34:37.650Z,26.88
2019-04-22T12:35:37.050Z,26.37
2019-04-22T12:36:38.304Z,25.77
2019-04-22T12:37:47.109Z,25.97
2019-04-22T12:38:37.870Z,25.89
2019-04-22T12:39:36.865Z,26.08
2019-04-22T12:40:44.722Z,26.29
2019-04-22T12:41:38.271Z,26.50
2019-04-22T12:42:37.578Z,26.59
2019-04-22T12:43:37.342Z,26.70
2019-04-22T12:44:39.204Z,26.79
2019-04-22T12:45:38.238Z,27.00
2019-04-22T12:46:36.804Z,26.59
2019-04-22T12:47:38.092Z,26.81
2019-04-22T12:48:37.164Z,27.00
2019-04-22T12:49:39.228Z,25.60
2019-04-22T12:50:40.683Z,25.99
2019-04-22T12:51:38.862Z,25.61
2019-04-22T12:52:43.654Z,25.81
2019-04-22T12:53:38.078Z,25.61
2019-04-22T12:54:37.327Z,25.51
2019-04-22T12:55:37.632Z,25.81
2019-04-22T12:56:37.582Z,26.71
2019-04-22T12:57:36.862Z,27.01
2019-04-22T12:58:37.840Z,26.81
2019-04-22T12:59:37.354Z,26.71
2019-04-22T13:00:36.629Z,26.21
2019-04-22T13:01:37.266Z,26.01
2019-04-22T13:02:36.770Z,26.51
2019-04-22T13:03:38.190Z,26.31
2019-04-22T13:04:36.586Z,25.91
2019-04-22T13:05:37.588Z,26.31
2019-04-22T13:06:37.544Z,26.71
2019-04-22T13:07:37.930Z,26.61
2019-04-22T13:08:37.923Z,26.70
2019-04-22T13:09:37.131Z,27.00
2019-04-22T13:10:47.283Z,26.89
2019-04-22T13:11:38.877Z,27.20
2019-04-22T13:12:37.145Z,27.50
2019-04-22T13:13:36.877Z,27.31
2019-04-22T13:14:36.909Z,27.31
2019-04-22T13:15:37.011Z,27.11
2019-04-22T13:16:36.489Z,27.09
2019-04-22T13:17:37.863Z,26.79
2019-04-22T13:18:42.115Z,27.00
2019-04-22T13:19:38.078Z,26.88
2019-04-22T13:20:36.573Z,27.28
2019-04-22T13:21:36.605Z,27.28
2019-04-22T13:22:36.904Z,26.98
2019-04-22T13:23:36.948Z,27.28
2019-04-22T13:24:36.397Z,27.38
2019-04-22T13:25:36.682Z,27.08
2019-04-22T13:26:38.031Z,26.98
2019-04-22T13:27:37.104Z,26.88
2019-04-22T13:28:36.831Z,26.68
2019-04-22T13:29:37.228Z,26.98
2019-04-22T13:30:36.904Z,26.59
2019-04-22T13:31:37.062Z,26.79
2019-04-22T13:32:36.812Z,27.01
2019-04-22T13:33:36.957Z,26.71
2019-04-22T13:34:43.679Z,26.91
2019-04-22T13:35:37.241Z,26.61
2019-04-22T13:36:36.645Z,26.41
2019-04-22T13:37:37.016Z,26.61
2019-04-22T13:38:38.385Z,26.71
2019-04-22T13:39:36.768Z,26.79
2019-04-22T13:40:37.164Z,26.59
2019-04-22T13:41:43.966Z,26.61
2019-04-22T13:42:37.544Z,26.61
2019-04-22T13:43:36.624Z,26.71
2019-04-22T13:44:37.615Z,26.81
2019-04-22T13:45:36.229Z,26.51
2019-04-22T13:46:36.123Z,26.41
2019-04-22T13:47:56.251Z,26.61
2019-04-22T13:48:58.936Z,26.71
2019-04-22T13:50:08.270Z,26.79
2019-04-22T13:51:03.757Z,26.40
2019-04-22T13:52:15.372Z,26.29
2019-04-22T13:54:59.943Z,26.41
2019-04-22T13:56:55.395Z,26.81
2019-04-22T13:57:53.951Z,26.51
2019-04-22T13:58:48.530Z,26.72
2019-04-22T13:59:44.067Z,26.71
2019-04-22T14:00:38.345Z,26.81
2019-04-22T14:01:36.672Z,26.71
2019-04-22T14:02:36.884Z,26.50
2019-04-22T14:03:37.417Z,26.09
2019-04-22T14:04:36.833Z,26.50
2019-04-22T14:05:37.187Z,26.20
2019-04-22T14:06:36.549Z,26.09
2019-04-22T14:07:37.035Z,26.10
2019-04-22T14:08:37.457Z,26.21
2019-04-22T14:09:36.046Z,26.21
2019-04-22T14:10:36.333Z,26.40
2019-04-22T14:11:47.446Z,26.20
2019-04-22T14:12:37.151Z,25.79
2019-04-22T14:13:35.837Z,25.49
2019-04-22T14:14:36.156Z,25.20
2019-04-22T14:15:36.109Z,25.40
2019-04-22T14:16:37.098Z,24.99
2019-04-22T14:17:36.807Z,25.29
2019-04-22T14:18:37.042Z,24.99
2019-04-22T14:19:36.247Z,25.09
2019-04-22T14:20:36.790Z,24.79
2019-04-22T14:21:36.808Z,25.18
2019-04-22T14:22:36.588Z,24.68
2019-04-22T14:23:35.719Z,24.90
2019-04-22T14:24:36.456Z,24.90